Merrill, IA (51038)

12:35 AM CDT on July 06, 2015 (GMT -0500)
South of LeMars | | Change Station
CLOSE
Current Station
Personal Weather Station
Location: LeMars, IA
Elevation: 1250 ft
Nearby Weather Stations

Elev 1250 ft 42.72 °N, 96.16 °W | Updated 7 minutes ago

Clear
Clear
77.4 °F
Feels Like 79 °F
N
6.7
Wind Variable Wind from South

Today
High -- | Low -- °F
--% Chance of Precip.
Yesterday
High -- | Low -- °F
Precip. -- in
5:53 AM 9:05 PM
Waning Gibbous, 79% visible
Pressure 29.74 in
Visibility 10.0 miles
Clouds Clear
Heat Index 79 °F
Dew Point 73 °F
Humidity 87%
Rainfall 0.00 in
Snow Depth Not available.
UV 0 out of 12
Pollen 4.80 out of 12
Air Quality Not available.
Flu Activity Not available.
METAR KLRJ 060515Z AUTO 16012KT 10SM CLR 26/23 A2974 RMK AO2

More Conditions Fewer Conditions

Pressure 29.74 in
Visibility 10.0 miles
Clouds Clear
Heat Index 79 °F
Dew Point 73 °F
Humidity 87%
Rainfall 0.00 in
Snow Depth Not available.
UV 0 out of 12
Pollen 4.80 out of 12
Air Quality Not available.
Flu Activity Not available.
METAR KLRJ 060515Z AUTO 16012KT 10SM CLR 26/23 A2974 RMK AO2

More Conditions Fewer Conditions

10-Day Weather Forecast

×

Almanac

Astronomy

Jul. 06, 2015 Rise Set
Actual Time
Civil Twilight
Nautical Twilight
Astronomical Twilight
Moon
Length of Visible Light
Length of Day
Tomorrow will be .
, % of the Moon is Illuminated

Today's Extremes

State Highs State Lows

Community

WunderPhotos

Upload Photos

1,835,489 photos uploaded!

WunderBlogs® & News

Nearby

Air Quality

  Air Quality AQ Index Pollutant
Not available.

Snow Depth

Station Depth Elevation

Earthquake Activity

City Distance Mag. Time & Date
Minimum magnitude displayed is 2.5.

Coastal Water Temperatures

Place Temperature

Stations

Nearby Weather Stations

Station Location Temp. Windchill Dew Point Humidity Wind Precip. Elev Updated Type